sensor_id;sensor_type;location;lat;lon;timestamp;P1;durP1;ratioP1;P2;durP2;ratioP2
42420;SDS011;28063;48.140;11.588;2023-04-06T00:01:01;0.77;;;0.73;;
42420;SDS011;28063;48.140;11.588;2023-04-06T00:03:27;2.53;;;1.30;;
42420;SDS011;28063;48.140;11.588;2023-04-06T00:05:53;1.20;;;1.02;;
42420;SDS011;28063;48.140;11.588;2023-04-06T00:08:19;2.17;;;1.20;;
42420;SDS011;28063;48.140;11.588;2023-04-06T00:10:46;2.75;;;1.52;;
42420;SDS011;28063;48.140;11.588;2023-04-06T00:13:12;1.10;;;1.00;;
42420;SDS011;28063;48.140;11.588;2023-04-06T00:15:37;2.10;;;1.15;;
42420;SDS011;28063;48.140;11.588;2023-04-06T00:18:03;2.72;;;1.40;;
42420;SDS011;28063;48.140;11.588;2023-04-06T00:20:29;1.52;;;1.23;;
42420;SDS011;28063;48.140;11.588;2023-04-06T00:22:55;1.98;;;1.40;;
42420;SDS011;28063;48.140;11.588;2023-04-06T00:25:20;1.70;;;1.30;;
42420;SDS011;28063;48.140;11.588;2023-04-06T00:27:46;1.20;;;1.10;;
42420;SDS011;28063;48.140;11.588;2023-04-06T00:30:12;1.45;;;1.33;;
42420;SDS011;28063;48.140;11.588;2023-04-06T00:32:38;1.83;;;1.10;;
42420;SDS011;28063;48.140;11.588;2023-04-06T00:35:04;1.30;;;1.20;;
42420;SDS011;28063;48.140;11.588;2023-04-06T00:37:30;1.80;;;1.27;;
42420;SDS011;28063;48.140;11.588;2023-04-06T00:39:55;1.33;;;1.00;;
42420;SDS011;28063;48.140;11.588;2023-04-06T00:42:21;3.15;;;1.25;;
42420;SDS011;28063;48.140;11.588;2023-04-06T00:44:58;1.13;;;0.93;;
42420;SDS011;28063;48.140;11.588;2023-04-06T00:47:24;0.90;;;0.80;;
42420;SDS011;28063;48.140;11.588;2023-04-06T00:49:51;2.15;;;1.17;;
42420;SDS011;28063;48.140;11.588;2023-04-06T00:52:17;1.85;;;1.35;;
42420;SDS011;28063;48.140;11.588;2023-04-06T00:54:43;1.80;;;1.10;;
42420;SDS011;28063;48.140;11.588;2023-04-06T00:57:10;1.23;;;1.10;;
42420;SDS011;28063;48.140;11.588;2023-04-06T00:59:37;2.22;;;1.20;;
42420;SDS011;28063;48.140;11.588;2023-04-06T01:02:03;1.88;;;1.15;;
42420;SDS011;28063;48.140;11.588;2023-04-06T01:04:28;1.42;;;1.10;;
42420;SDS011;28063;48.140;11.588;2023-04-06T01:06:54;0.82;;;0.80;;
42420;SDS011;28063;48.140;11.588;2023-04-06T01:09:20;1.23;;;0.73;;
42420;SDS011;28063;48.140;11.588;2023-04-06T01:11:46;1.50;;;1.35;;
42420;SDS011;28063;48.140;11.588;2023-04-06T01:14:12;1.52;;;1.15;;
42420;SDS011;28063;48.140;11.588;2023-04-06T01:16:38;1.55;;;1.17;;
42420;SDS011;28063;48.140;11.588;2023-04-06T01:19:10;0.85;;;0.80;;
42420;SDS011;28063;48.140;11.588;2023-04-06T01:21:37;2.95;;;1.30;;
42420;SDS011;28063;48.140;11.588;2023-04-06T01:24:04;2.35;;;1.33;;
42420;SDS011;28063;48.140;11.588;2023-04-06T01:26:30;1.33;;;1.08;;
42420;SDS011;28063;48.140;11.588;2023-04-06T01:28:56;1.80;;;1.20;;
42420;SDS011;28063;48.140;11.588;2023-04-06T01:31:22;2.42;;;1.45;;
42420;SDS011;28063;48.140;11.588;2023-04-06T01:33:48;1.60;;;1.23;;
42420;SDS011;28063;48.140;11.588;2023-04-06T01:36:14;3.33;;;1.52;;
42420;SDS011;28063;48.140;11.588;2023-04-06T01:38:40;3.47;;;1.70;;
42420;SDS011;28063;48.140;11.588;2023-04-06T01:41:06;1.83;;;1.48;;
42420;SDS011;28063;48.140;11.588;2023-04-06T01:43:32;2.25;;;1.42;;
42420;SDS011;28063;48.140;11.588;2023-04-06T01:45:59;3.35;;;1.58;;
42420;SDS011;28063;48.140;11.588;2023-04-06T01:48:25;2.25;;;1.83;;
42420;SDS011;28063;48.140;11.588;2023-04-06T01:50:51;2.92;;;2.13;;
42420;SDS011;28063;48.140;11.588;2023-04-06T01:53:17;2.08;;;1.33;;
42420;SDS011;28063;48.140;11.588;2023-04-06T01:55:43;2.45;;;1.67;;
42420;SDS011;28063;48.140;11.588;2023-04-06T01:58:09;3.17;;;1.80;;
42420;SDS011;28063;48.140;11.588;2023-04-06T02:00:35;3.53;;;1.63;;
42420;SDS011;28063;48.140;11.588;2023-04-06T02:03:00;2.50;;;1.58;;
42420;SDS011;28063;48.140;11.588;2023-04-06T02:05:26;2.83;;;1.70;;
42420;SDS011;28063;48.140;11.588;2023-04-06T02:07:52;1.65;;;1.30;;
42420;SDS011;28063;48.140;11.588;2023-04-06T02:10:18;2.60;;;1.88;;
42420;SDS011;28063;48.140;11.588;2023-04-06T02:12:44;1.88;;;1.40;;
42420;SDS011;28063;48.140;11.588;2023-04-06T02:15:10;2.42;;;1.30;;
42420;SDS011;28063;48.140;11.588;2023-04-06T02:17:38;1.25;;;1.15;;
42420;SDS011;28063;48.140;11.588;2023-04-06T02:20:04;1.80;;;1.55;;
42420;SDS011;28063;48.140;11.588;2023-04-06T02:22:30;2.47;;;1.75;;
42420;SDS011;28063;48.140;11.588;2023-04-06T02:24:56;2.80;;;1.73;;
42420;SDS011;28063;48.140;11.588;2023-04-06T02:27:22;2.05;;;1.48;;
42420;SDS011;28063;48.140;11.588;2023-04-06T02:29:48;2.45;;;1.50;;
42420;SDS011;28063;48.140;11.588;2023-04-06T02:32:14;2.72;;;1.38;;
42420;SDS011;28063;48.140;11.588;2023-04-06T02:34:42;2.53;;;1.50;;
42420;SDS011;28063;48.140;11.588;2023-04-06T02:37:10;2.85;;;1.50;;
42420;SDS011;28063;48.140;11.588;2023-04-06T02:39:46;2.17;;;1.48;;
42420;SDS011;28063;48.140;11.588;2023-04-06T02:42:12;1.80;;;1.40;;
42420;SDS011;28063;48.140;11.588;2023-04-06T02:44:40;1.75;;;1.30;;
42420;SDS011;28063;48.140;11.588;2023-04-06T02:47:06;1.65;;;1.52;;
42420;SDS011;28063;48.140;11.588;2023-04-06T02:49:31;1.60;;;1.50;;
42420;SDS011;28063;48.140;11.588;2023-04-06T02:51:57;1.85;;;1.45;;
42420;SDS011;28063;48.140;11.588;2023-04-06T02:54:23;2.50;;;1.60;;
42420;SDS011;28063;48.140;11.588;2023-04-06T02:56:51;1.85;;;1.30;;
42420;SDS011;28063;48.140;11.588;2023-04-06T02:59:17;1.77;;;1.45;;
42420;SDS011;28063;48.140;11.588;2023-04-06T03:01:45;2.08;;;1.15;;
42420;SDS011;28063;48.140;11.588;2023-04-06T03:04:14;1.20;;;1.00;;
42420;SDS011;28063;48.140;11.588;2023-04-06T03:06:39;2.03;;;1.25;;
42420;SDS011;28063;48.140;11.588;2023-04-06T03:09:06;3.10;;;2.00;;
42420;SDS011;28063;48.140;11.588;2023-04-06T03:11:32;2.63;;;1.42;;
42420;SDS011;28063;48.140;11.588;2023-04-06T03:13:57;3.33;;;2.00;;
42420;SDS011;28063;48.140;11.588;2023-04-06T03:16:24;2.88;;;1.52;;
42420;SDS011;28063;48.140;11.588;2023-04-06T03:18:49;3.10;;;1.63;;
42420;SDS011;28063;48.140;11.588;2023-04-06T03:21:15;3.88;;;1.90;;
42420;SDS011;28063;48.140;11.588;2023-04-06T03:23:41;2.78;;;1.73;;
42420;SDS011;28063;48.140;11.588;2023-04-06T03:26:07;2.80;;;1.42;;
42420;SDS011;28063;48.140;11.588;2023-04-06T03:28:33;2.05;;;1.45;;
42420;SDS011;28063;48.140;11.588;2023-04-06T03:30:59;2.22;;;1.55;;
42420;SDS011;28063;48.140;11.588;2023-04-06T03:33:25;2.72;;;1.80;;
42420;SDS011;28063;48.140;11.588;2023-04-06T03:35:53;1.77;;;1.48;;
42420;SDS011;28063;48.140;11.588;2023-04-06T03:38:19;2.17;;;1.60;;
42420;SDS011;28063;48.140;11.588;2023-04-06T03:40:45;1.90;;;1.48;;
42420;SDS011;28063;48.140;11.588;2023-04-06T03:43:11;3.80;;;1.70;;
42420;SDS011;28063;48.140;11.588;2023-04-06T03:45:37;1.65;;;1.20;;
42420;SDS011;28063;48.140;11.588;2023-04-06T03:48:03;2.15;;;1.35;;
42420;SDS011;28063;48.140;11.588;2023-04-06T03:50:28;1.92;;;1.58;;
42420;SDS011;28063;48.140;11.588;2023-04-06T03:52:54;2.53;;;1.55;;
42420;SDS011;28063;48.140;11.588;2023-04-06T03:55:20;1.95;;;1.20;;
42420;SDS011;28063;48.140;11.588;2023-04-06T03:57:46;1.98;;;1.20;;
42420;SDS011;28063;48.140;11.588;2023-04-06T04:00:12;1.15;;;0.90;;
42420;SDS011;28063;48.140;11.588;2023-04-06T04:02:38;0.98;;;0.90;;
42420;SDS011;28063;48.140;11.588;2023-04-06T04:05:04;1.85;;;1.15;;
42420;SDS011;28063;48.140;11.588;2023-04-06T04:07:30;1.50;;;1.38;;
42420;SDS011;28063;48.140;11.588;2023-04-06T04:09:56;1.58;;;1.27;;
42420;SDS011;28063;48.140;11.588;2023-04-06T04:12:22;2.30;;;1.80;;
42420;SDS011;28063;48.140;11.588;2023-04-06T04:14:47;1.88;;;1.63;;
42420;SDS011;28063;48.140;11.588;2023-04-06T04:17:13;1.73;;;1.60;;
42420;SDS011;28063;48.140;11.588;2023-04-06T04:19:39;2.35;;;1.73;;
42420;SDS011;28063;48.140;11.588;2023-04-06T04:22:05;3.60;;;1.80;;
42420;SDS011;28063;48.140;11.588;2023-04-06T04:24:31;2.00;;;1.48;;
42420;SDS011;28063;48.140;11.588;2023-04-06T04:26:57;2.33;;;1.77;;
42420;SDS011;28063;48.140;11.588;2023-04-06T04:29:23;1.90;;;1.63;;
42420;SDS011;28063;48.140;11.588;2023-04-06T04:31:49;2.10;;;1.65;;
42420;SDS011;28063;48.140;11.588;2023-04-06T04:34:15;1.95;;;1.60;;
42420;SDS011;28063;48.140;11.588;2023-04-06T04:36:41;2.88;;;1.73;;
42420;SDS011;28063;48.140;11.588;2023-04-06T04:39:07;2.78;;;2.05;;
42420;SDS011;28063;48.140;11.588;2023-04-06T04:41:33;2.28;;;1.90;;
42420;SDS011;28063;48.140;11.588;2023-04-06T04:43:59;3.05;;;1.92;;
42420;SDS011;28063;48.140;11.588;2023-04-06T04:46:25;2.28;;;1.60;;
42420;SDS011;28063;48.140;11.588;2023-04-06T04:48:50;2.00;;;1.58;;
42420;SDS011;28063;48.140;11.588;2023-04-06T04:51:16;1.38;;;1.27;;
42420;SDS011;28063;48.140;11.588;2023-04-06T04:53:41;2.85;;;1.10;;
42420;SDS011;28063;48.140;11.588;2023-04-06T04:56:07;1.52;;;1.30;;
42420;SDS011;28063;48.140;11.588;2023-04-06T04:58:33;1.50;;;1.23;;
42420;SDS011;28063;48.140;11.588;2023-04-06T05:00:58;2.72;;;1.50;;
42420;SDS011;28063;48.140;11.588;2023-04-06T05:03:25;1.85;;;1.48;;
42420;SDS011;28063;48.140;11.588;2023-04-06T05:05:51;1.75;;;1.38;;
42420;SDS011;28063;48.140;11.588;2023-04-06T05:08:17;2.22;;;1.40;;
42420;SDS011;28063;48.140;11.588;2023-04-06T05:10:43;1.55;;;1.42;;
42420;SDS011;28063;48.140;11.588;2023-04-06T05:13:10;2.28;;;1.50;;
42420;SDS011;28063;48.140;11.588;2023-04-06T05:15:36;2.38;;;1.30;;
42420;SDS011;28063;48.140;11.588;2023-04-06T05:18:05;1.85;;;1.35;;
42420;SDS011;28063;48.140;11.588;2023-04-06T05:20:31;2.75;;;1.70;;
42420;SDS011;28063;48.140;11.588;2023-04-06T05:22:56;1.27;;;1.13;;
42420;SDS011;28063;48.140;11.588;2023-04-06T05:25:22;1.48;;;1.38;;
42420;SDS011;28063;48.140;11.588;2023-04-06T05:27:48;2.17;;;1.33;;
42420;SDS011;28063;48.140;11.588;2023-04-06T05:30:14;2.25;;;1.00;;
42420;SDS011;28063;48.140;11.588;2023-04-06T05:32:40;1.52;;;1.08;;
42420;SDS011;28063;48.140;11.588;2023-04-06T05:35:06;1.45;;;1.20;;
42420;SDS011;28063;48.140;11.588;2023-04-06T05:37:32;1.30;;;1.17;;
42420;SDS011;28063;48.140;11.588;2023-04-06T05:39:57;2.05;;;1.42;;
42420;SDS011;28063;48.140;11.588;2023-04-06T05:42:23;1.73;;;1.08;;
42420;SDS011;28063;48.140;11.588;2023-04-06T05:44:49;1.58;;;1.25;;
42420;SDS011;28063;48.140;11.588;2023-04-06T05:47:14;1.80;;;1.42;;
42420;SDS011;28063;48.140;11.588;2023-04-06T05:49:43;2.03;;;1.50;;
42420;SDS011;28063;48.140;11.588;2023-04-06T05:52:09;1.92;;;1.23;;
42420;SDS011;28063;48.140;11.588;2023-04-06T05:54:35;2.67;;;1.52;;
42420;SDS011;28063;48.140;11.588;2023-04-06T05:57:02;1.17;;;1.08;;
42420;SDS011;28063;48.140;11.588;2023-04-06T05:59:31;1.38;;;1.27;;
42420;SDS011;28063;48.140;11.588;2023-04-06T06:01:57;2.13;;;1.17;;
42420;SDS011;28063;48.140;11.588;2023-04-06T06:04:23;1.35;;;1.25;;
42420;SDS011;28063;48.140;11.588;2023-04-06T06:06:48;3.20;;;1.52;;
42420;SDS011;28063;48.140;11.588;2023-04-06T06:09:14;3.75;;;1.80;;
42420;SDS011;28063;48.140;11.588;2023-04-06T06:11:40;1.60;;;1.40;;
42420;SDS011;28063;48.140;11.588;2023-04-06T06:14:06;2.22;;;1.45;;
42420;SDS011;28063;48.140;11.588;2023-04-06T06:16:32;3.60;;;1.38;;
42420;SDS011;28063;48.140;11.588;2023-04-06T06:18:58;2.03;;;1.33;;
42420;SDS011;28063;48.140;11.588;2023-04-06T06:21:24;2.03;;;1.60;;
42420;SDS011;28063;48.140;11.588;2023-04-06T06:23:49;3.50;;;1.92;;
42420;SDS011;28063;48.140;11.588;2023-04-06T06:26:15;2.20;;;1.40;;
42420;SDS011;28063;48.140;11.588;2023-04-06T06:28:41;3.38;;;2.25;;
42420;SDS011;28063;48.140;11.588;2023-04-06T06:31:07;2.30;;;1.30;;
42420;SDS011;28063;48.140;11.588;2023-04-06T06:33:33;2.13;;;1.27;;
42420;SDS011;28063;48.140;11.588;2023-04-06T06:35:58;2.40;;;1.00;;
42420;SDS011;28063;48.140;11.588;2023-04-06T06:38:25;1.65;;;1.25;;
42420;SDS011;28063;48.140;11.588;2023-04-06T06:40:50;2.10;;;1.00;;
42420;SDS011;28063;48.140;11.588;2023-04-06T06:43:16;1.35;;;1.17;;
42420;SDS011;28063;48.140;11.588;2023-04-06T06:45:42;0.80;;;0.80;;
42420;SDS011;28063;48.140;11.588;2023-04-06T06:48:07;2.05;;;1.27;;
42420;SDS011;28063;48.140;11.588;2023-04-06T06:50:33;1.67;;;1.20;;
42420;SDS011;28063;48.140;11.588;2023-04-06T06:52:59;1.30;;;1.05;;
42420;SDS011;28063;48.140;11.588;2023-04-06T06:55:24;1.75;;;1.35;;
42420;SDS011;28063;48.140;11.588;2023-04-06T06:57:52;1.95;;;1.20;;
42420;SDS011;28063;48.140;11.588;2023-04-06T07:00:21;1.88;;;1.00;;
42420;SDS011;28063;48.140;11.588;2023-04-06T07:02:47;2.17;;;1.10;;
42420;SDS011;28063;48.140;11.588;2023-04-06T07:05:13;1.73;;;1.15;;
42420;SDS011;28063;48.140;11.588;2023-04-06T07:07:40;1.65;;;1.35;;
42420;SDS011;28063;48.140;11.588;2023-04-06T07:10:06;1.85;;;1.30;;
42420;SDS011;28063;48.140;11.588;2023-04-06T07:12:32;1.63;;;1.42;;
42420;SDS011;28063;48.140;11.588;2023-04-06T07:14:58;1.63;;;1.48;;
42420;SDS011;28063;48.140;11.588;2023-04-06T07:17:24;3.38;;;2.03;;
42420;SDS011;28063;48.140;11.588;2023-04-06T07:19:50;3.33;;;2.35;;
42420;SDS011;28063;48.140;11.588;2023-04-06T07:22:16;2.97;;;1.75;;
42420;SDS011;28063;48.140;11.588;2023-04-06T07:24:41;3.25;;;1.88;;
42420;SDS011;28063;48.140;11.588;2023-04-06T07:27:07;4.95;;;1.92;;
42420;SDS011;28063;48.140;11.588;2023-04-06T07:29:33;3.72;;;1.98;;
42420;SDS011;28063;48.140;11.588;2023-04-06T07:31:58;3.42;;;2.20;;
42420;SDS011;28063;48.140;11.588;2023-04-06T07:34:27;2.88;;;1.88;;
42420;SDS011;28063;48.140;11.588;2023-04-06T07:36:53;2.03;;;1.80;;
42420;SDS011;28063;48.140;11.588;2023-04-06T07:39:19;4.03;;;1.80;;
42420;SDS011;28063;48.140;11.588;2023-04-06T07:41:45;2.83;;;2.28;;
42420;SDS011;28063;48.140;11.588;2023-04-06T07:44:11;2.58;;;1.98;;
42420;SDS011;28063;48.140;11.588;2023-04-06T07:46:36;3.28;;;1.95;;
42420;SDS011;28063;48.140;11.588;2023-04-06T07:49:02;1.85;;;1.60;;
42420;SDS011;28063;48.140;11.588;2023-04-06T07:51:29;1.95;;;1.52;;
42420;SDS011;28063;48.140;11.588;2023-04-06T07:53:55;2.05;;;1.85;;
42420;SDS011;28063;48.140;11.588;2023-04-06T07:56:22;1.83;;;1.65;;
42420;SDS011;28063;48.140;11.588;2023-04-06T07:58:48;3.72;;;1.65;;
42420;SDS011;28063;48.140;11.588;2023-04-06T08:01:14;1.95;;;1.65;;
42420;SDS011;28063;48.140;11.588;2023-04-06T08:03:39;2.13;;;1.50;;
42420;SDS011;28063;48.140;11.588;2023-04-06T08:06:05;1.92;;;1.50;;
42420;SDS011;28063;48.140;11.588;2023-04-06T08:08:31;1.60;;;1.50;;
42420;SDS011;28063;48.140;11.588;2023-04-06T08:10:57;2.50;;;2.30;;
42420;SDS011;28063;48.140;11.588;2023-04-06T08:13:23;2.63;;;1.95;;
42420;SDS011;28063;48.140;11.588;2023-04-06T08:15:48;2.13;;;1.70;;
42420;SDS011;28063;48.140;11.588;2023-04-06T08:18:14;3.10;;;2.10;;
42420;SDS011;28063;48.140;11.588;2023-04-06T08:20:40;2.75;;;1.67;;
42420;SDS011;28063;48.140;11.588;2023-04-06T08:23:06;5.00;;;2.80;;
42420;SDS011;28063;48.140;11.588;2023-04-06T08:25:33;4.05;;;2.75;;
42420;SDS011;28063;48.140;11.588;2023-04-06T08:28:00;3.83;;;2.33;;
42420;SDS011;28063;48.140;11.588;2023-04-06T08:30:26;3.38;;;2.40;;
42420;SDS011;28063;48.140;11.588;2023-04-06T08:32:51;4.05;;;2.30;;
42420;SDS011;28063;48.140;11.588;2023-04-06T08:35:17;2.33;;;2.10;;
42420;SDS011;28063;48.140;11.588;2023-04-06T08:37:43;3.22;;;2.00;;
42420;SDS011;28063;48.140;11.588;2023-04-06T08:40:09;2.75;;;1.67;;
42420;SDS011;28063;48.140;11.588;2023-04-06T08:42:38;1.60;;;1.50;;
42420;SDS011;28063;48.140;11.588;2023-04-06T08:45:08;2.50;;;1.65;;
42420;SDS011;28063;48.140;11.588;2023-04-06T08:47:35;4.38;;;1.90;;
42420;SDS011;28063;48.140;11.588;2023-04-06T08:50:05;2.53;;;1.90;;
42420;SDS011;28063;48.140;11.588;2023-04-06T08:52:32;2.50;;;1.55;;
42420;SDS011;28063;48.140;11.588;2023-04-06T08:54:59;3.88;;;2.20;;
42420;SDS011;28063;48.140;11.588;2023-04-06T08:57:25;2.00;;;1.75;;
42420;SDS011;28063;48.140;11.588;2023-04-06T08:59:51;3.40;;;1.80;;
42420;SDS011;28063;48.140;11.588;2023-04-06T09:02:19;1.85;;;1.63;;
42420;SDS011;28063;48.140;11.588;2023-04-06T09:04:47;2.20;;;2.00;;
42420;SDS011;28063;48.140;11.588;2023-04-06T09:07:17;1.90;;;1.67;;
42420;SDS011;28063;48.140;11.588;2023-04-06T09:09:43;1.70;;;1.60;;
42420;SDS011;28063;48.140;11.588;2023-04-06T09:12:29;1.77;;;1.67;;
42420;SDS011;28063;48.140;11.588;2023-04-06T09:14:56;2.08;;;1.92;;
42420;SDS011;28063;48.140;11.588;2023-04-06T09:17:22;2.22;;;2.03;;
42420;SDS011;28063;48.140;11.588;2023-04-06T09:19:50;2.70;;;1.83;;
42420;SDS011;28063;48.140;11.588;2023-04-06T09:22:16;2.35;;;2.15;;
42420;SDS011;28063;48.140;11.588;2023-04-06T09:24:43;2.22;;;2.00;;
42420;SDS011;28063;48.140;11.588;2023-04-06T09:27:10;3.63;;;2.40;;
42420;SDS011;28063;48.140;11.588;2023-04-06T09:29:36;4.72;;;3.17;;
42420;SDS011;28063;48.140;11.588;2023-04-06T09:32:04;4.80;;;3.33;;
42420;SDS011;28063;48.140;11.588;2023-04-06T09:34:31;7.55;;;4.68;;
42420;SDS011;28063;48.140;11.588;2023-04-06T09:36:57;5.20;;;3.58;;
42420;SDS011;28063;48.140;11.588;2023-04-06T09:39:23;5.10;;;3.33;;
42420;SDS011;28063;48.140;11.588;2023-04-06T09:41:51;4.18;;;3.03;;
42420;SDS011;28063;48.140;11.588;2023-04-06T09:44:17;4.28;;;3.03;;
42420;SDS011;28063;48.140;11.588;2023-04-06T09:46:44;2.88;;;2.30;;
42420;SDS011;28063;48.140;11.588;2023-04-06T09:49:11;2.38;;;2.17;;
42420;SDS011;28063;48.140;11.588;2023-04-06T09:51:43;3.92;;;2.50;;
42420;SDS011;28063;48.140;11.588;2023-04-06T09:54:15;2.60;;;1.77;;
42420;SDS011;28063;48.140;11.588;2023-04-06T09:56:47;6.43;;;3.78;;
42420;SDS011;28063;48.140;11.588;2023-04-06T10:02:01;4.20;;;3.17;;
42420;SDS011;28063;48.140;11.588;2023-04-06T10:07:08;7.32;;;5.35;;
42420;SDS011;28063;48.140;11.588;2023-04-06T10:09:37;8.18;;;5.60;;
42420;SDS011;28063;48.140;11.588;2023-04-06T10:12:06;10.02;;;5.57;;
42420;SDS011;28063;48.140;11.588;2023-04-06T10:14:35;9.00;;;5.15;;
42420;SDS011;28063;48.140;11.588;2023-04-06T10:17:02;5.57;;;3.60;;
42420;SDS011;28063;48.140;11.588;2023-04-06T10:19:33;4.85;;;3.05;;
42420;SDS011;28063;48.140;11.588;2023-04-06T10:22:16;7.70;;;5.07;;
42420;SDS011;28063;48.140;11.588;2023-04-06T10:24:49;6.05;;;4.13;;
42420;SDS011;28063;48.140;11.588;2023-04-06T10:27:15;5.00;;;4.03;;
42420;SDS011;28063;48.140;11.588;2023-04-06T10:29:44;6.07;;;3.97;;
42420;SDS011;28063;48.140;11.588;2023-04-06T10:32:13;4.65;;;3.20;;
42420;SDS011;28063;48.140;11.588;2023-04-06T10:34:39;4.28;;;3.60;;
42420;SDS011;28063;48.140;11.588;2023-04-06T10:37:14;4.60;;;2.92;;
42420;SDS011;28063;48.140;11.588;2023-04-06T10:39:53;3.03;;;2.40;;
42420;SDS011;28063;48.140;11.588;2023-04-06T10:42:23;7.30;;;3.65;;
42420;SDS011;28063;48.140;11.588;2023-04-06T10:44:50;4.75;;;3.40;;
42420;SDS011;28063;48.140;11.588;2023-04-06T10:47:16;4.72;;;3.80;;
42420;SDS011;28063;48.140;11.588;2023-04-06T10:49:43;3.42;;;2.90;;
42420;SDS011;28063;48.140;11.588;2023-04-06T10:52:09;7.47;;;3.30;;
42420;SDS011;28063;48.140;11.588;2023-04-06T10:54:36;3.33;;;2.53;;
42420;SDS011;28063;48.140;11.588;2023-04-06T10:57:09;4.35;;;2.65;;
42420;SDS011;28063;48.140;11.588;2023-04-06T10:59:35;3.95;;;3.35;;
42420;SDS011;28063;48.140;11.588;2023-04-06T11:02:01;4.47;;;3.72;;
42420;SDS011;28063;48.140;11.588;2023-04-06T11:04:26;5.43;;;2.80;;
42420;SDS011;28063;48.140;11.588;2023-04-06T11:06:52;6.57;;;4.43;;
42420;SDS011;28063;48.140;11.588;2023-04-06T11:09:23;7.97;;;4.47;;
42420;SDS011;28063;48.140;11.588;2023-04-06T11:11:50;5.85;;;4.18;;
42420;SDS011;28063;48.140;11.588;2023-04-06T11:14:16;7.45;;;4.72;;
42420;SDS011;28063;48.140;11.588;2023-04-06T11:16:42;7.43;;;5.60;;
42420;SDS011;28063;48.140;11.588;2023-04-06T11:19:10;6.90;;;4.60;;
42420;SDS011;28063;48.140;11.588;2023-04-06T11:21:41;3.58;;;3.00;;
42420;SDS011;28063;48.140;11.588;2023-04-06T11:29:21;3.88;;;3.35;;
42420;SDS011;28063;48.140;11.588;2023-04-06T11:34:20;2.10;;;1.90;;
42420;SDS011;28063;48.140;11.588;2023-04-06T11:36:48;2.13;;;1.93;;
42420;SDS011;28063;48.140;11.588;2023-04-06T11:39:21;2.28;;;1.75;;
42420;SDS011;28063;48.140;11.588;2023-04-06T11:41:52;2.47;;;2.28;;
42420;SDS011;28063;48.140;11.588;2023-04-06T11:44:32;2.83;;;2.38;;
42420;SDS011;28063;48.140;11.588;2023-04-06T11:47:02;3.35;;;3.05;;
42420;SDS011;28063;48.140;11.588;2023-04-06T11:49:30;4.68;;;3.53;;
42420;SDS011;28063;48.140;11.588;2023-04-06T11:51:57;4.65;;;4.05;;
42420;SDS011;28063;48.140;11.588;2023-04-06T11:56:59;5.35;;;4.20;;
42420;SDS011;28063;48.140;11.588;2023-04-06T11:59:26;4.82;;;3.28;;
42420;SDS011;28063;48.140;11.588;2023-04-06T12:01:52;5.15;;;3.08;;
42420;SDS011;28063;48.140;11.588;2023-04-06T12:04:18;6.10;;;3.75;;
42420;SDS011;28063;48.140;11.588;2023-04-06T12:06:45;6.80;;;4.63;;
42420;SDS011;28063;48.140;11.588;2023-04-06T12:09:11;4.75;;;3.40;;
42420;SDS011;28063;48.140;11.588;2023-04-06T12:11:36;8.40;;;5.70;;
42420;SDS011;28063;48.140;11.588;2023-04-06T12:14:02;6.25;;;4.75;;
42420;SDS011;28063;48.140;11.588;2023-04-06T12:16:30;8.23;;;5.28;;
42420;SDS011;28063;48.140;11.588;2023-04-06T12:18:56;8.15;;;4.68;;
42420;SDS011;28063;48.140;11.588;2023-04-06T12:21:22;5.85;;;4.03;;
42420;SDS011;28063;48.140;11.588;2023-04-06T12:23:48;3.33;;;2.90;;
42420;SDS011;28063;48.140;11.588;2023-04-06T12:26:13;4.95;;;3.67;;
42420;SDS011;28063;48.140;11.588;2023-04-06T12:28:39;4.10;;;3.28;;
42420;SDS011;28063;48.140;11.588;2023-04-06T12:31:05;2.65;;;2.35;;
42420;SDS011;28063;48.140;11.588;2023-04-06T12:33:31;3.50;;;2.88;;
42420;SDS011;28063;48.140;11.588;2023-04-06T12:35:56;3.42;;;2.45;;
42420;SDS011;28063;48.140;11.588;2023-04-06T12:38:22;2.58;;;2.38;;
42420;SDS011;28063;48.140;11.588;2023-04-06T12:40:48;3.15;;;2.85;;
42420;SDS011;28063;48.140;11.588;2023-04-06T12:43:14;4.78;;;3.45;;
42420;SDS011;28063;48.140;11.588;2023-04-06T12:45:39;3.80;;;2.72;;
42420;SDS011;28063;48.140;11.588;2023-04-06T12:48:05;5.40;;;4.90;;
42420;SDS011;28063;48.140;11.588;2023-04-06T12:50:32;6.35;;;4.97;;
42420;SDS011;28063;48.140;11.588;2023-04-06T12:52:57;5.95;;;4.85;;
42420;SDS011;28063;48.140;11.588;2023-04-06T12:55:23;4.90;;;4.50;;
42420;SDS011;28063;48.140;11.588;2023-04-06T12:57:50;6.68;;;4.63;;
42420;SDS011;28063;48.140;11.588;2023-04-06T13:00:16;4.35;;;3.75;;
42420;SDS011;28063;48.140;11.588;2023-04-06T13:02:42;4.97;;;3.75;;
42420;SDS011;28063;48.140;11.588;2023-04-06T13:05:12;5.65;;;3.63;;
42420;SDS011;28063;48.140;11.588;2023-04-06T13:07:39;4.30;;;3.85;;
42420;SDS011;28063;48.140;11.588;2023-04-06T13:10:05;5.55;;;3.50;;
42420;SDS011;28063;48.140;11.588;2023-04-06T13:12:31;3.63;;;3.20;;
42420;SDS011;28063;48.140;11.588;2023-04-06T13:14:57;3.22;;;2.83;;
42420;SDS011;28063;48.140;11.588;2023-04-06T13:17:22;3.67;;;2.75;;
42420;SDS011;28063;48.140;11.588;2023-04-06T13:19:48;5.43;;;3.17;;
42420;SDS011;28063;48.140;11.588;2023-04-06T13:22:14;3.92;;;3.25;;
42420;SDS011;28063;48.140;11.588;2023-04-06T13:24:40;6.30;;;4.28;;
42420;SDS011;28063;48.140;11.588;2023-04-06T13:27:06;7.25;;;4.57;;
42420;SDS011;28063;48.140;11.588;2023-04-06T13:29:32;5.10;;;4.07;;
42420;SDS011;28063;48.140;11.588;2023-04-06T13:31:59;4.72;;;3.45;;
42420;SDS011;28063;48.140;11.588;2023-04-06T13:34:25;3.92;;;3.42;;
42420;SDS011;28063;48.140;11.588;2023-04-06T13:36:50;2.72;;;2.42;;
42420;SDS011;28063;48.140;11.588;2023-04-06T13:39:16;2.97;;;2.60;;
42420;SDS011;28063;48.140;11.588;2023-04-06T13:41:42;3.95;;;2.83;;
42420;SDS011;28063;48.140;11.588;2023-04-06T13:44:07;2.50;;;2.30;;
42420;SDS011;28063;48.140;11.588;2023-04-06T13:46:33;3.53;;;2.90;;
42420;SDS011;28063;48.140;11.588;2023-04-06T13:48:59;3.53;;;3.13;;
42420;SDS011;28063;48.140;11.588;2023-04-06T13:51:24;3.72;;;2.85;;
42420;SDS011;28063;48.140;11.588;2023-04-06T13:53:51;6.47;;;4.07;;
42420;SDS011;28063;48.140;11.588;2023-04-06T13:56:18;3.83;;;2.92;;
42420;SDS011;28063;48.140;11.588;2023-04-06T13:58:44;4.43;;;3.67;;
42420;SDS011;28063;48.140;11.588;2023-04-06T14:01:10;4.80;;;4.15;;
42420;SDS011;28063;48.140;11.588;2023-04-06T14:03:36;3.60;;;3.28;;
42420;SDS011;28063;48.140;11.588;2023-04-06T14:06:12;3.75;;;3.00;;
42420;SDS011;28063;48.140;11.588;2023-04-06T14:08:38;3.13;;;2.45;;
42420;SDS011;28063;48.140;11.588;2023-04-06T14:11:04;4.85;;;3.22;;
42420;SDS011;28063;48.140;11.588;2023-04-06T14:13:33;3.60;;;2.97;;
42420;SDS011;28063;48.140;11.588;2023-04-06T14:15:59;6.10;;;3.88;;
42420;SDS011;28063;48.140;11.588;2023-04-06T14:18:24;6.80;;;4.25;;
42420;SDS011;28063;48.140;11.588;2023-04-06T14:20:53;5.60;;;3.08;;
42420;SDS011;28063;48.140;11.588;2023-04-06T14:23:22;2.47;;;2.28;;
42420;SDS011;28063;48.140;11.588;2023-04-06T14:25:50;5.95;;;3.22;;
42420;SDS011;28063;48.140;11.588;2023-04-06T14:28:16;4.03;;;2.45;;
42420;SDS011;28063;48.140;11.588;2023-04-06T14:30:43;2.60;;;2.40;;
42420;SDS011;28063;48.140;11.588;2023-04-06T14:33:09;3.83;;;2.90;;
42420;SDS011;28063;48.140;11.588;2023-04-06T14:35:37;3.72;;;3.42;;
42420;SDS011;28063;48.140;11.588;2023-04-06T14:38:03;4.65;;;3.38;;
42420;SDS011;28063;48.140;11.588;2023-04-06T14:40:29;3.28;;;2.97;;
42420;SDS011;28063;48.140;11.588;2023-04-06T14:42:55;5.03;;;3.45;;
42420;SDS011;28063;48.140;11.588;2023-04-06T14:45:21;4.18;;;3.40;;